createdAt,value
2023-09-19T00:01:03.489Z,6.97
2023-09-19T00:03:32.862Z,8.95
2023-09-19T00:06:01.074Z,7.05
2023-09-19T00:08:29.319Z,5.45
2023-09-19T00:10:57.626Z,9.25
2023-09-19T00:13:26.024Z,6.85
2023-09-19T00:15:56.626Z,5.30
2023-09-19T00:18:29.312Z,7.78
2023-09-19T00:21:00.616Z,7.13
2023-09-19T00:23:29.306Z,5.50
2023-09-19T00:26:00.397Z,5.90
2023-09-19T00:30:56.433Z,3.28
2023-09-19T00:33:25.435Z,4.82
2023-09-19T00:35:54.219Z,4.70
2023-09-19T00:38:27.835Z,4.20
2023-09-19T00:41:00.079Z,4.40
2023-09-19T00:43:29.311Z,5.22
2023-09-19T00:45:58.151Z,6.30
2023-09-19T00:48:28.873Z,9.18
2023-09-19T00:50:57.051Z,7.90
2023-09-19T00:53:28.634Z,4.57
2023-09-19T00:55:57.692Z,7.80
2023-09-19T00:58:26.127Z,5.80
2023-09-19T01:00:54.360Z,6.63
2023-09-19T01:03:22.731Z,6.35
2023-09-19T01:05:51.356Z,7.43
2023-09-19T01:08:21.287Z,8.15
2023-09-19T01:10:54.426Z,6.05
2023-09-19T01:13:25.637Z,11.82
2023-09-19T01:15:57.865Z,7.22
2023-09-19T01:18:29.980Z,9.85
2023-09-19T01:21:04.950Z,9.07
2023-09-19T01:23:41.866Z,10.10
2023-09-19T01:26:20.071Z,10.35
2023-09-19T01:28:56.196Z,9.02
2023-09-19T01:31:26.713Z,7.82
2023-09-19T01:34:02.045Z,8.50
2023-09-19T01:36:31.309Z,8.25
2023-09-19T01:39:01.554Z,8.20
2023-09-19T01:41:35.276Z,8.70
2023-09-19T01:44:05.803Z,12.68
2023-09-19T01:46:37.790Z,6.85
2023-09-19T01:49:15.970Z,4.90
2023-09-19T01:51:48.353Z,8.70
2023-09-19T01:54:25.776Z,9.45
2023-09-19T01:57:02.290Z,13.52
2023-09-19T01:59:32.982Z,7.95
2023-09-19T02:02:03.125Z,9.98
2023-09-19T02:04:31.515Z,11.00
2023-09-19T02:07:00.337Z,12.90
2023-09-19T02:09:28.666Z,13.23
2023-09-19T02:11:56.957Z,9.45
2023-09-19T02:14:25.003Z,7.00
2023-09-19T02:16:53.043Z,11.10
2023-09-19T02:19:22.462Z,10.60
2023-09-19T02:21:51.504Z,9.80
2023-09-19T02:24:20.345Z,11.13
2023-09-19T02:26:48.360Z,12.35
2023-09-19T02:29:16.365Z,9.48
2023-09-19T02:31:44.654Z,9.23
2023-09-19T02:34:11.789Z,12.65
2023-09-19T02:36:41.186Z,11.45
2023-09-19T02:39:09.377Z,15.98
2023-09-19T02:41:37.373Z,8.63
2023-09-19T02:44:08.515Z,9.75
2023-09-19T02:46:37.174Z,8.23
2023-09-19T02:49:06.204Z,11.88
2023-09-19T02:51:34.425Z,10.07
2023-09-19T02:54:04.800Z,9.55
2023-09-19T02:56:33.542Z,7.47
2023-09-19T02:59:02.142Z,11.20
2023-09-19T03:01:30.463Z,11.52
2023-09-19T03:03:59.075Z,14.63
2023-09-19T03:06:27.195Z,8.45
2023-09-19T03:08:57.634Z,13.57
2023-09-19T03:11:27.016Z,14.80
2023-09-19T03:13:59.291Z,9.95
2023-09-19T03:16:27.426Z,8.07
2023-09-19T03:18:59.379Z,10.43
2023-09-19T03:21:27.554Z,8.65
2023-09-19T03:23:55.966Z,12.02
2023-09-19T03:26:23.990Z,13.48
2023-09-19T03:28:53.376Z,19.02
2023-09-19T03:31:21.566Z,9.70
2023-09-19T03:33:49.653Z,11.80
2023-09-19T03:36:17.768Z,8.65
2023-09-19T03:38:45.866Z,6.35
2023-09-19T03:41:15.591Z,9.70
2023-09-19T03:43:43.969Z,8.75
2023-09-19T03:46:14.374Z,15.30
2023-09-19T03:48:43.830Z,7.40
2023-09-19T03:51:12.453Z,14.38
2023-09-19T03:53:40.762Z,12.07
2023-09-19T03:56:09.367Z,10.80
2023-09-19T03:58:40.647Z,6.57
2023-09-19T04:01:08.746Z,6.55
2023-09-19T04:03:47.488Z,9.27
2023-09-19T04:06:15.755Z,7.32
2023-09-19T04:08:44.526Z,7.70
2023-09-19T04:11:13.782Z,8.70
2023-09-19T04:13:42.041Z,8.35
2023-09-19T04:16:11.461Z,14.57
2023-09-19T04:18:41.071Z,7.47
2023-09-19T04:21:10.337Z,10.38
2023-09-19T04:23:38.832Z,6.93
2023-09-19T04:26:07.098Z,7.18
2023-09-19T04:28:39.518Z,10.30
2023-09-19T04:31:09.300Z,8.43
2023-09-19T04:33:37.476Z,7.45
2023-09-19T04:36:34.936Z,8.93
2023-09-19T04:38:56.381Z,7.13
2023-09-19T04:41:24.546Z,12.43
2023-09-19T04:43:52.888Z,13.38
2023-09-19T04:46:21.537Z,11.50
2023-09-19T04:48:49.502Z,9.30
2023-09-19T04:51:20.082Z,12.13
2023-09-19T04:53:49.016Z,14.23
2023-09-19T04:56:17.284Z,9.80
2023-09-19T04:58:45.707Z,7.55
2023-09-19T05:01:16.287Z,6.93
2023-09-19T05:03:45.874Z,8.98
2023-09-19T05:06:13.840Z,8.73
2023-09-19T05:08:43.267Z,7.22
2023-09-19T05:11:11.217Z,8.52
2023-09-19T05:13:39.471Z,8.30
2023-09-19T05:16:11.238Z,8.25
2023-09-19T05:18:39.342Z,11.00
2023-09-19T05:21:07.284Z,6.97
2023-09-19T05:23:35.306Z,12.48
2023-09-19T05:26:06.370Z,9.30
2023-09-19T05:28:36.078Z,8.80
2023-09-19T05:31:04.414Z,13.07
2023-09-19T05:33:32.990Z,7.78
2023-09-19T05:36:01.281Z,9.40
2023-09-19T05:38:29.287Z,8.98
2023-09-19T05:40:59.080Z,9.30
2023-09-19T05:43:28.506Z,10.27
2023-09-19T05:45:57.666Z,10.30
2023-09-19T05:48:25.742Z,8.63
2023-09-19T05:50:53.668Z,10.57
2023-09-19T05:53:21.758Z,7.13
2023-09-19T05:55:50.790Z,7.35
2023-09-19T05:58:19.309Z,6.13
2023-09-19T06:00:50.352Z,7.22
2023-09-19T06:03:20.038Z,9.85
2023-09-19T06:05:50.275Z,10.65
2023-09-19T06:08:18.352Z,3.30
2023-09-19T06:10:48.196Z,9.52
2023-09-19T06:13:16.774Z,10.95
2023-09-19T06:15:44.821Z,4.35
2023-09-19T06:18:20.780Z,8.48
2023-09-19T06:20:49.684Z,11.50
2023-09-19T06:23:18.190Z,8.55
2023-09-19T06:25:46.208Z,8.13
2023-09-19T06:28:14.559Z,6.68
2023-09-19T06:30:42.950Z,7.60
2023-09-19T06:33:12.982Z,8.65
2023-09-19T06:35:43.157Z,5.93
2023-09-19T06:38:14.229Z,8.05
2023-09-19T06:43:12.214Z,8.90
2023-09-19T06:45:40.258Z,9.82
2023-09-19T06:48:08.376Z,7.18
2023-09-19T06:50:37.216Z,9.20
2023-09-19T06:53:06.731Z,5.72
2023-09-19T06:55:35.188Z,10.05
2023-09-19T06:58:03.247Z,8.38
2023-09-19T07:00:33.234Z,5.03
2023-09-19T07:03:02.280Z,8.98
2023-09-19T07:05:30.619Z,9.70
2023-09-19T07:07:59.894Z,5.78
2023-09-19T07:10:30.456Z,9.73
2023-09-19T07:12:59.513Z,6.55
2023-09-19T07:15:27.861Z,11.10
2023-09-19T07:17:57.488Z,6.03
2023-09-19T07:20:27.482Z,13.10
2023-09-19T07:22:56.333Z,6.68
2023-09-19T07:25:24.785Z,8.07
2023-09-19T07:27:54.318Z,9.98
2023-09-19T07:30:22.364Z,8.02
2023-09-19T07:32:50.373Z,11.05
2023-09-19T07:35:20.148Z,7.35
2023-09-19T07:37:50.695Z,6.75
2023-09-19T07:40:21.509Z,8.45
2023-09-19T07:42:49.921Z,7.22
2023-09-19T07:45:19.442Z,9.10
2023-09-19T07:47:48.033Z,9.15
2023-09-19T07:50:20.215Z,14.57
2023-09-19T07:52:48.752Z,13.30
2023-09-19T07:55:18.537Z,12.50
2023-09-19T07:57:47.230Z,9.05
2023-09-19T08:00:16.682Z,11.07
2023-09-19T08:02:48.461Z,11.07
2023-09-19T08:05:19.421Z,7.10
2023-09-19T08:07:49.888Z,13.23
2023-09-19T08:10:20.805Z,11.13
2023-09-19T08:12:49.502Z,12.10
2023-09-19T08:15:18.135Z,9.90
2023-09-19T08:17:47.931Z,10.60
2023-09-19T08:20:17.288Z,10.98
2023-09-19T08:22:47.008Z,13.02
2023-09-19T08:25:15.285Z,10.07
2023-09-19T08:27:44.886Z,11.07
2023-09-19T08:30:13.361Z,8.50
2023-09-19T08:32:43.579Z,11.25
2023-09-19T08:35:13.055Z,14.67
2023-09-19T08:37:41.194Z,11.55
2023-09-19T08:40:10.627Z,5.75
2023-09-19T08:42:56.451Z,7.40
2023-09-19T08:45:25.438Z,10.23
2023-09-19T08:47:59.075Z,12.02
2023-09-19T08:50:29.346Z,9.40
2023-09-19T08:52:58.074Z,10.85
2023-09-19T08:55:29.314Z,12.27
2023-09-19T09:00:28.782Z,13.57
2023-09-19T09:02:57.528Z,12.30
2023-09-19T09:05:26.097Z,11.82
2023-09-19T09:07:57.425Z,14.85
2023-09-19T09:10:25.670Z,11.15
2023-09-19T09:12:54.456Z,11.48
2023-09-19T09:15:24.448Z,11.73
2023-09-19T09:17:54.445Z,13.17
2023-09-19T09:20:22.752Z,9.68
2023-09-19T09:22:55.930Z,9.02
2023-09-19T09:25:25.476Z,17.83
2023-09-19T09:28:03.348Z,11.32
2023-09-19T09:30:38.582Z,10.30
2023-09-19T09:33:12.514Z,11.30
2023-09-19T09:35:49.230Z,13.13
2023-09-19T09:38:19.949Z,11.40
2023-09-19T09:40:49.934Z,9.77
2023-09-19T09:43:28.496Z,9.43
2023-09-19T09:46:30.647Z,13.15
2023-09-19T09:49:15.523Z,10.85
2023-09-19T09:51:46.846Z,11.60
2023-09-19T09:54:16.880Z,9.77
2023-09-19T09:56:55.021Z,10.20
2023-09-19T09:59:25.153Z,10.82
2023-09-19T10:01:55.036Z,11.67
2023-09-19T10:04:31.137Z,14.57
2023-09-19T10:06:59.381Z,9.07
2023-09-19T10:09:32.084Z,7.50
2023-09-19T10:12:04.894Z,9.45
2023-09-19T10:14:35.960Z,8.38
2023-09-19T10:19:38.553Z,6.20
2023-09-19T10:22:09.853Z,7.13
2023-09-19T10:24:49.003Z,10.40
2023-09-19T10:27:27.785Z,8.55
2023-09-19T10:29:56.463Z,7.03
2023-09-19T10:32:25.066Z,9.38
2023-09-19T10:34:56.618Z,9.82
2023-09-19T10:37:27.199Z,11.00
2023-09-19T10:40:01.273Z,8.30
2023-09-19T10:42:30.229Z,9.60
2023-09-19T10:45:01.164Z,7.35
2023-09-19T10:49:57.397Z,10.75
2023-09-19T10:52:26.785Z,10.10
2023-09-19T10:54:58.452Z,6.25
2023-09-19T10:57:29.149Z,9.05
2023-09-19T11:00:05.833Z,10.57
2023-09-19T11:02:34.515Z,5.95
2023-09-19T11:05:12.866Z,6.70
2023-09-19T11:07:56.522Z,9.00
2023-09-19T11:10:39.412Z,7.03
2023-09-19T11:13:22.342Z,7.68
2023-09-19T11:16:14.608Z,7.53
2023-09-19T11:18:56.887Z,7.00
2023-09-19T11:21:43.227Z,5.65
2023-09-19T11:24:38.911Z,7.43
2023-09-19T11:27:18.417Z,7.60
2023-09-19T11:29:46.502Z,10.30
2023-09-19T11:32:17.536Z,6.25
2023-09-19T11:34:48.181Z,8.25
2023-09-19T11:37:35.010Z,6.68
2023-09-19T11:40:16.749Z,6.00
2023-09-19T11:42:46.500Z,7.65
2023-09-19T11:45:35.667Z,8.55
2023-09-19T11:48:07.498Z,8.32
2023-09-19T11:50:44.190Z,8.00
2023-09-19T11:53:12.545Z,9.15
2023-09-19T11:55:40.904Z,9.45
2023-09-19T11:58:09.188Z,6.13
2023-09-19T12:00:37.577Z,6.72
2023-09-19T12:03:10.386Z,4.15
2023-09-19T12:05:39.886Z,5.50
2023-09-19T12:08:09.512Z,7.53
2023-09-19T12:10:46.407Z,5.15
2023-09-19T12:13:17.795Z,5.75
2023-09-19T12:15:49.201Z,7.30
2023-09-19T12:18:30.768Z,4.90
2023-09-19T12:21:01.210Z,7.32
2023-09-19T12:23:29.159Z,6.70
2023-09-19T12:25:58.632Z,6.13
2023-09-19T12:28:29.627Z,5.68
2023-09-19T12:30:58.803Z,7.53
2023-09-19T12:33:26.925Z,7.88
2023-09-19T12:35:55.292Z,4.18
2023-09-19T12:38:29.236Z,5.32
2023-09-19T12:40:57.816Z,4.68
2023-09-19T12:43:25.769Z,4.35
2023-09-19T12:45:54.615Z,5.78
2023-09-19T12:48:24.235Z,5.10
2023-09-19T12:51:07.217Z,4.15
2023-09-19T12:53:42.025Z,5.07
2023-09-19T12:56:11.677Z,3.72
2023-09-19T12:58:50.440Z,5.47
2023-09-19T13:01:18.972Z,4.93
2023-09-19T13:03:47.367Z,4.57
2023-09-19T13:06:18.126Z,3.92
2023-09-19T13:08:55.439Z,4.53
2023-09-19T13:11:23.391Z,4.15
2023-09-19T13:14:14.699Z,6.35
2023-09-19T13:16:55.025Z,5.45
2023-09-19T13:19:36.616Z,3.22
2023-09-19T13:22:05.037Z,3.65
2023-09-19T13:24:36.368Z,2.97
2023-09-19T13:27:04.977Z,5.72
2023-09-19T13:29:35.015Z,2.10
2023-09-19T13:32:05.464Z,5.30
2023-09-19T13:34:33.520Z,4.35
2023-09-19T13:37:02.372Z,4.93
2023-09-19T13:39:30.303Z,2.40
2023-09-19T13:42:01.007Z,4.30
2023-09-19T13:44:30.146Z,2.53
2023-09-19T13:46:58.239Z,2.58
2023-09-19T13:49:26.955Z,5.53
2023-09-19T13:51:56.632Z,5.43
2023-09-19T13:54:24.686Z,2.00
2023-09-19T13:56:52.632Z,2.25
2023-09-19T13:59:24.552Z,3.95
2023-09-19T14:01:54.578Z,4.07
2023-09-19T14:04:23.091Z,2.87
2023-09-19T14:06:51.030Z,3.72
2023-09-19T14:09:20.603Z,3.97
2023-09-19T14:11:49.648Z,2.78
2023-09-19T14:14:17.798Z,2.47
2023-09-19T14:16:47.261Z,1.90
2023-09-19T14:19:17.453Z,2.42
2023-09-19T14:21:45.554Z,3.10
2023-09-19T14:24:19.028Z,2.03
2023-09-19T14:26:47.295Z,5.03
2023-09-19T14:29:15.619Z,3.42
2023-09-19T14:31:44.154Z,1.67
2023-09-19T14:34:13.519Z,3.67
2023-09-19T14:36:41.425Z,1.48
2023-09-19T14:39:10.516Z,3.50
2023-09-19T14:41:38.494Z,3.40
2023-09-19T14:44:07.181Z,2.30
2023-09-19T14:46:35.231Z,2.38
2023-09-19T14:49:05.447Z,2.47
2023-09-19T14:51:36.720Z,3.53
2023-09-19T14:54:05.089Z,6.43
2023-09-19T14:56:33.101Z,2.22
2023-09-19T14:59:01.025Z,3.25
2023-09-19T15:01:29.118Z,1.63
2023-09-19T15:03:57.340Z,3.17
2023-09-19T15:06:27.434Z,1.45
2023-09-19T15:08:56.753Z,3.25
2023-09-19T15:11:24.745Z,2.30
2023-09-19T15:13:53.735Z,4.28
2023-09-19T15:16:21.827Z,1.50
2023-09-19T15:18:49.871Z,5.22
2023-09-19T15:21:17.917Z,3.03
2023-09-19T15:23:46.929Z,3.05
2023-09-19T15:26:21.606Z,3.25
2023-09-19T15:28:50.744Z,1.65
2023-09-19T15:31:18.982Z,3.08
2023-09-19T15:33:47.091Z,3.58
2023-09-19T15:36:15.873Z,5.13
2023-09-19T15:38:57.967Z,4.22
2023-09-19T15:41:28.030Z,4.45
2023-09-19T15:43:56.096Z,2.40
2023-09-19T15:46:27.791Z,2.97
2023-09-19T15:48:55.780Z,2.50
2023-09-19T15:51:23.801Z,3.08
2023-09-19T15:53:52.545Z,6.05
2023-09-19T15:56:22.092Z,2.05
2023-09-19T15:58:52.277Z,2.05
2023-09-19T16:01:20.473Z,4.35
2023-09-19T16:03:49.241Z,2.55
2023-09-19T16:06:18.847Z,3.80
2023-09-19T16:08:48.558Z,3.70
2023-09-19T16:11:17.093Z,7.07
2023-09-19T16:13:46.575Z,5.00
2023-09-19T16:16:17.448Z,2.90
2023-09-19T16:18:47.147Z,5.40
2023-09-19T16:21:15.320Z,5.95
2023-09-19T16:23:46.676Z,2.15
2023-09-19T16:26:35.690Z,3.17
2023-09-19T16:29:07.343Z,2.95
2023-09-19T16:31:36.892Z,5.72
2023-09-19T16:37:39.804Z,3.25
2023-09-19T16:43:44.915Z,5.85
2023-09-19T16:46:13.604Z,3.78
2023-09-19T16:49:02.301Z,3.20
2023-09-19T16:51:31.380Z,4.60
2023-09-19T16:53:59.274Z,4.38
2023-09-19T16:56:27.977Z,3.22
2023-09-19T16:58:56.029Z,5.25
2023-09-19T17:01:25.877Z,3.72
2023-09-19T17:03:58.192Z,7.63
2023-09-19T17:06:26.895Z,5.57
2023-09-19T17:08:55.602Z,5.13
2023-09-19T17:11:25.044Z,5.18
2023-09-19T17:13:54.351Z,6.53
2023-09-19T17:16:23.867Z,2.78
2023-09-19T17:18:52.724Z,2.83
2023-09-19T17:21:22.360Z,4.47
2023-09-19T17:23:50.519Z,2.83
2023-09-19T17:26:19.429Z,3.47
2023-09-19T17:28:48.178Z,8.05
2023-09-19T17:31:17.401Z,4.00
2023-09-19T17:33:46.306Z,5.18
2023-09-19T17:36:15.914Z,8.25
2023-09-19T17:38:46.075Z,3.38
2023-09-19T17:41:15.904Z,4.47
2023-09-19T17:43:45.041Z,11.50
2023-09-19T17:46:13.805Z,4.57
2023-09-19T17:48:44.824Z,3.35
2023-09-19T17:51:13.776Z,3.45
2023-09-19T17:53:42.366Z,3.88
2023-09-19T17:56:16.108Z,5.75
2023-09-19T17:58:44.918Z,7.65
2023-09-19T18:01:13.443Z,4.40
2023-09-19T18:03:43.011Z,7.85
2023-09-19T18:06:11.269Z,5.95
2023-09-19T18:08:40.188Z,7.97
2023-09-19T18:11:15.173Z,6.57
2023-09-19T18:13:45.475Z,5.00
2023-09-19T18:16:13.645Z,6.03
2023-09-19T18:18:42.555Z,2.38
2023-09-19T18:21:11.078Z,2.60
2023-09-19T18:23:39.070Z,4.50
2023-09-19T18:26:08.351Z,4.90
2023-09-19T18:28:37.304Z,3.13
2023-09-19T18:31:08.843Z,5.15
2023-09-19T18:33:37.518Z,4.93
2023-09-19T18:36:08.038Z,4.20
2023-09-19T18:38:41.496Z,6.10
2023-09-19T18:41:10.225Z,6.93
2023-09-19T18:43:38.376Z,5.68
2023-09-19T18:46:09.379Z,6.50
2023-09-19T18:48:39.854Z,5.88
2023-09-19T18:51:08.564Z,6.80
2023-09-19T18:53:36.843Z,6.00
2023-09-19T18:56:05.966Z,4.38
2023-09-19T18:58:33.952Z,6.18
2023-09-19T19:01:05.356Z,6.85
2023-09-19T19:03:34.658Z,3.85
2023-09-19T19:06:07.072Z,6.22
2023-09-19T19:08:35.607Z,4.00
2023-09-19T19:11:08.048Z,6.18
2023-09-19T19:13:36.134Z,5.05
2023-09-19T19:16:04.128Z,6.43
2023-09-19T19:18:32.277Z,5.53
2023-09-19T19:21:00.506Z,8.82
2023-09-19T19:23:30.552Z,7.35
2023-09-19T19:26:00.745Z,5.03
2023-09-19T19:28:44.127Z,3.85
2023-09-19T19:31:12.694Z,4.00
2023-09-19T19:33:40.850Z,6.28
2023-09-19T19:36:09.908Z,6.60
2023-09-19T19:38:41.135Z,6.57
2023-09-19T19:41:09.652Z,5.80
2023-09-19T19:43:37.731Z,4.13
2023-09-19T19:46:07.174Z,4.70
2023-09-19T19:48:35.804Z,7.20
2023-09-19T19:51:08.215Z,5.43
2023-09-19T19:53:36.237Z,4.63
2023-09-19T19:56:06.948Z,4.72
2023-09-19T19:58:36.293Z,5.35
2023-09-19T20:01:07.251Z,7.20
2023-09-19T20:06:03.799Z,4.07
2023-09-19T20:08:31.949Z,5.53
2023-09-19T20:11:05.329Z,5.68
2023-09-19T20:13:33.459Z,5.72
2023-09-19T20:16:03.447Z,5.20
2023-09-19T20:18:31.532Z,3.17
2023-09-19T20:21:10.646Z,2.97
2023-09-19T20:23:39.149Z,10.02
2023-09-19T20:26:08.542Z,6.93
2023-09-19T20:28:39.159Z,4.55
2023-09-19T20:31:10.198Z,3.47
2023-09-19T20:33:39.918Z,5.68
2023-09-19T20:36:08.629Z,5.13
2023-09-19T20:38:36.654Z,8.32
2023-09-19T20:41:13.560Z,4.40
2023-09-19T20:43:43.025Z,8.55
2023-09-19T20:46:12.099Z,5.53
2023-09-19T20:48:41.955Z,4.32
2023-09-19T20:51:13.604Z,8.20
2023-09-19T20:53:42.710Z,4.88
2023-09-19T20:56:12.286Z,4.93
2023-09-19T20:58:42.038Z,8.48
2023-09-19T21:01:11.732Z,6.82
2023-09-19T21:03:40.379Z,5.97
2023-09-19T21:06:09.826Z,5.25
2023-09-19T21:08:38.233Z,5.93
2023-09-19T21:11:13.309Z,5.97
2023-09-19T21:13:43.253Z,7.82
2023-09-19T21:16:13.313Z,5.68
2023-09-19T21:18:42.236Z,4.95
2023-09-19T21:21:11.768Z,5.35
2023-09-19T21:23:39.859Z,4.55
2023-09-19T21:26:08.198Z,8.77
2023-09-19T21:28:36.545Z,3.10
2023-09-19T21:31:07.178Z,5.90
2023-09-19T21:33:37.402Z,7.65
2023-09-19T21:36:05.594Z,4.47
2023-09-19T21:38:33.698Z,4.88
2023-09-19T21:41:08.402Z,5.13
2023-09-19T21:43:37.164Z,7.55
2023-09-19T21:46:06.558Z,5.32
2023-09-19T21:48:35.212Z,5.43
2023-09-19T21:51:06.924Z,4.85
2023-09-19T21:53:35.958Z,7.13
2023-09-19T21:56:04.702Z,5.97
2023-09-19T21:58:35.616Z,6.32
2023-09-19T22:03:38.488Z,5.95
2023-09-19T22:08:35.557Z,5.90
2023-09-19T22:11:04.643Z,6.65
2023-09-19T22:13:33.945Z,9.45
2023-09-19T22:16:02.766Z,5.97
2023-09-19T22:18:31.445Z,8.13
2023-09-19T22:21:07.901Z,5.25
2023-09-19T22:23:37.418Z,3.92
2023-09-19T22:26:05.522Z,7.55
2023-09-19T22:28:36.715Z,5.10
2023-09-19T22:31:07.583Z,3.92
2023-09-19T22:36:08.607Z,8.55
2023-09-19T22:38:36.965Z,5.03
2023-09-19T22:41:11.530Z,4.40
2023-09-19T22:43:46.376Z,5.18
2023-09-19T22:46:15.628Z,5.57
2023-09-19T22:48:44.515Z,3.88
2023-09-19T22:51:21.955Z,5.78
2023-09-19T22:53:52.464Z,5.97
2023-09-19T22:56:22.985Z,5.43
2023-09-19T22:58:52.021Z,6.85
2023-09-19T23:01:28.228Z,6.18
2023-09-19T23:04:15.341Z,5.38
2023-09-19T23:06:49.068Z,6.57
2023-09-19T23:09:22.575Z,8.05
2023-09-19T23:11:51.738Z,5.03
2023-09-19T23:14:20.386Z,5.70
2023-09-19T23:16:54.397Z,6.45
2023-09-19T23:19:29.549Z,4.72
2023-09-19T23:22:07.025Z,3.45
2023-09-19T23:24:38.812Z,5.05
2023-09-19T23:27:13.034Z,7.88
2023-09-19T23:29:41.166Z,3.88
2023-09-19T23:32:09.554Z,5.18
2023-09-19T23:34:37.690Z,5.38
2023-09-19T23:37:07.158Z,7.47
2023-09-19T23:39:39.054Z,4.38
2023-09-19T23:42:08.644Z,6.60
2023-09-19T23:44:36.800Z,4.03
2023-09-19T23:47:05.059Z,5.88
2023-09-19T23:49:33.070Z,6.72
2023-09-19T23:52:01.078Z,5.55
2023-09-19T23:54:31.027Z,7.25
2023-09-19T23:56:59.789Z,7.95
2023-09-19T23:59:28.944Z,4.68
